Time;durP1;ratioP1;P1;durP2;ratioP2;P2;SDS_P1;SDS_P2;PMS_P1;PMS_P2;Temp;Humidity;BMP_temperature;BMP_pressure;BME280_temperature;BME280_humidity;BME280_pressure;Samples;Min_cycle;Max_cycle;Signal;HPM_P1;HPM_P2
2021/06/16 00:10:33;;;;;;;3.57;2.17;;;17.60;99.90;;;;;;4962789;29;20487;-50
2021/06/16 00:13:01;;;;;;;3.63;1.80;;;17.60;99.90;;;;;;4976154;29;20440;-51
2021/06/16 00:15:31;;;;;;;4.23;2.27;;;17.60;99.90;;;;;;4976414;28;20503;-52
2021/06/16 00:17:58;;;;;;;6.40;2.47;;;17.60;99.90;;;;;;4976003;29;20440;-56
2021/06/16 00:20:25;;;;;;;2.17;1.83;;;17.50;99.90;;;;;;4976467;29;20452;-56
2021/06/16 00:22:52;;;;;;;5.20;2.10;;;17.50;99.90;;;;;;4976195;28;20472;-51
2021/06/16 00:25:21;;;;;;;5.93;2.63;;;17.50;99.90;;;;;;4976083;29;20480;-56
2021/06/16 00:27:49;;;;;;;3.80;2.20;;;17.40;99.90;;;;;;4966461;28;20527;-51
2021/06/16 00:30:17;;;;;;;3.13;2.33;;;17.40;99.90;;;;;;4941383;29;20478;-50
2021/06/16 00:32:44;;;;;;;4.40;2.20;;;17.30;99.90;;;;;;4975692;29;20448;-50
2021/06/16 00:35:12;;;;;;;7.80;2.67;;;17.30;99.90;;;;;;4975517;29;20495;-51
2021/06/16 00:37:40;;;;;;;3.30;2.20;;;17.30;99.90;;;;;;4975352;28;20451;-55
2021/06/16 00:40:09;;;;;;;4.73;1.70;;;17.20;99.90;;;;;;4975279;29;20483;-53
2021/06/16 00:42:35;;;;;;;3.63;2.20;;;17.20;99.90;;;;;;4975806;29;20447;-50
2021/06/16 00:45:05;;;;;;;5.40;2.20;;;17.20;99.90;;;;;;4975852;29;20443;-51
2021/06/16 00:47:32;;;;;;;4.20;2.20;;;17.20;99.90;;;;;;4976003;28;20444;-49
2021/06/16 00:49:58;;;;;;;4.30;2.40;;;17.20;99.90;;;;;;4975343;28;20454;-51
2021/06/16 00:52:26;;;;;;;3.93;2.63;;;17.10;99.90;;;;;;4975445;29;20435;-50
2021/06/16 00:54:53;;;;;;;5.73;1.70;;;17.10;99.90;;;;;;4975668;29;20436;-56
2021/06/16 00:57:20;;;;;;;5.13;2.07;;;17.00;99.90;;;;;;4976615;29;20419;-53
2021/06/16 00:59:54;;;;;;;7.00;2.40;;;17.00;99.90;;;;;;4975463;29;20447;-52
2021/06/16 01:02:22;;;;;;;10.53;2.57;;;17.00;99.90;;;;;;4975524;29;20440;-52
2021/06/16 01:04:50;;;;;;;2.90;2.00;;;17.00;99.90;;;;;;4967887;29;20469;-54
2021/06/16 01:07:17;;;;;;;2.93;1.90;;;17.10;99.90;;;;;;4975579;29;20448;-49
2021/06/16 01:09:51;;;;;;;4.23;1.97;;;17.00;99.90;;;;;;4979789;28;20503;-50
2021/06/16 01:12:22;;;;;;;3.40;2.20;;;17.00;99.90;;;;;;4986880;28;20439;-51
2021/06/16 01:14:53;;;;;;;2.43;1.63;;;17.00;99.90;;;;;;4994359;28;20475;-54
2021/06/16 01:17:23;;;;;;;5.17;1.90;;;16.90;99.90;;;;;;4994689;28;20455;-50
2021/06/16 01:20:10;;;;;;;6.30;2.23;;;16.90;99.90;;;;;;4983598;28;20450;-49
2021/06/16 01:22:42;;;;;;;3.70;2.37;;;16.80;99.90;;;;;;4977711;28;20526;-57
2021/06/16 01:25:11;;;;;;;5.23;1.90;;;16.80;99.90;;;;;;4994506;28;20439;-51
2021/06/16 01:27:40;;;;;;;3.60;2.50;;;16.80;99.90;;;;;;4994296;28;20447;-50
2021/06/16 01:30:11;;;;;;;2.10;1.83;;;16.80;99.90;;;;;;4994247;28;20454;-50
2021/06/16 01:32:38;;;;;;;2.70;1.70;;;16.80;99.90;;;;;;4994839;28;20444;-50
2021/06/16 01:35:06;;;;;;;2.77;2.47;;;16.80;99.90;;;;;;4995129;28;20439;-52
2021/06/16 01:37:33;;;;;;;2.87;1.80;;;16.70;99.90;;;;;;4986478;28;20451;-53
2021/06/16 01:40:03;;;;;;;3.13;2.10;;;16.70;99.90;;;;;;4997783;28;20451;-52
2021/06/16 01:42:31;;;;;;;3.60;2.00;;;16.70;99.90;;;;;;4981356;28;20464;-54
2021/06/16 01:45:00;;;;;;;5.97;2.30;;;16.70;99.90;;;;;;4998782;28;20446;-52
2021/06/16 01:47:28;;;;;;;2.90;1.70;;;16.70;99.90;;;;;;4997610;28;20457;-51
2021/06/16 01:50:01;;;;;;;6.20;2.30;;;16.60;99.90;;;;;;4997226;28;20451;-51
2021/06/16 01:52:29;;;;;;;2.40;2.07;;;16.60;99.90;;;;;;4984333;28;20468;-56
2021/06/16 01:55:00;;;;;;;2.73;1.83;;;16.60;99.90;;;;;;4989674;28;20450;-56
2021/06/16 02:00:07;;;;;;;3.13;1.93;;;16.50;99.90;;;;;;5431922;23;20488;-54
2021/06/16 02:02:34;;;;;;;3.40;2.03;;;16.50;99.90;;;;;;5015000;28;20437;-49
2021/06/16 02:05:01;;;;;;;3.70;1.87;;;16.50;99.90;;;;;;5013664;28;20450;-53
2021/06/16 02:07:31;;;;;;;2.50;2.30;;;16.50;99.90;;;;;;5018965;28;20437;-55
2021/06/16 02:09:59;;;;;;;3.70;1.83;;;16.40;99.90;;;;;;5011149;28;20454;-56
2021/06/16 02:12:28;;;;;;;3.23;2.10;;;16.40;99.90;;;;;;5008060;28;20474;-56
2021/06/16 02:14:58;;;;;;;3.30;1.93;;;16.40;99.90;;;;;;5011853;28;20467;-53
2021/06/16 02:17:30;;;;;;;5.93;1.80;;;16.30;99.90;;;;;;5004715;28;20458;-51
2021/06/16 02:19:57;;;;;;;5.60;2.37;;;16.30;99.90;;;;;;5009290;28;20455;-56
2021/06/16 02:22:26;;;;;;;3.27;2.13;;;16.20;99.90;;;;;;5002570;28;20442;-52
2021/06/16 02:24:55;;;;;;;6.80;2.20;;;16.20;99.90;;;;;;5015920;28;20469;-52
2021/06/16 02:27:22;;;;;;;2.43;1.80;;;16.20;99.90;;;;;;4998908;28;20446;-54
2021/06/16 02:29:49;;;;;;;5.07;2.43;;;16.10;99.90;;;;;;5001217;28;20486;-52
2021/06/16 02:32:16;;;;;;;4.33;2.77;;;16.10;99.90;;;;;;5012568;28;20458;-51
2021/06/16 02:34:44;;;;;;;2.67;1.83;;;16.10;99.90;;;;;;5007145;28;20439;-56
2021/06/16 02:37:18;;;;;;;3.13;1.93;;;16.10;99.90;;;;;;5005155;28;20471;-55
2021/06/16 02:39:48;;;;;;;3.60;2.23;;;16.10;99.90;;;;;;5000497;28;20439;-57
2021/06/16 02:42:16;;;;;;;1.97;1.53;;;16.10;99.90;;;;;;5002709;28;20924;-59
2021/06/16 02:44:44;;;;;;;3.13;1.80;;;16.00;99.90;;;;;;5018072;28;20426;-56
2021/06/16 02:47:18;;;;;;;3.63;2.27;;;16.00;99.90;;;;;;4998226;28;20550;-57
2021/06/16 02:49:50;;;;;;;2.00;1.80;;;16.00;99.90;;;;;;4998225;28;20427;-57
2021/06/16 02:52:20;;;;;;;3.87;2.00;;;15.90;99.90;;;;;;5010820;28;20466;-55
2021/06/16 02:54:52;;;;;;;3.00;1.80;;;15.90;99.90;;;;;;5008431;28;20443;-54
2021/06/16 02:57:22;;;;;;;2.90;2.30;;;15.90;99.90;;;;;;4999999;28;20451;-57
2021/06/16 02:59:51;;;;;;;4.67;1.53;;;15.90;99.90;;;;;;5008186;28;20501;-57
2021/06/16 03:02:23;;;;;;;3.23;2.87;;;15.90;99.90;;;;;;5005112;28;20815;-54
2021/06/16 03:04:52;;;;;;;3.97;2.17;;;15.90;99.90;;;;;;4999063;28;20439;-55
2021/06/16 03:07:21;;;;;;;2.93;1.77;;;15.90;99.90;;;;;;5016207;28;20431;-57
2021/06/16 03:09:49;;;;;;;2.50;2.00;;;15.80;99.90;;;;;;5006955;28;20447;-56
2021/06/16 03:12:17;;;;;;;2.90;1.90;;;15.80;99.90;;;;;;5016410;28;20486;-57
2021/06/16 03:14:46;;;;;;;4.57;1.80;;;15.90;99.90;;;;;;5013361;28;20474;-57
2021/06/16 03:17:14;;;;;;;3.23;1.90;;;15.90;99.90;;;;;;5006578;28;20517;-56
2021/06/16 03:19:41;;;;;;;4.93;2.30;;;15.90;99.90;;;;;;5006645;28;20443;-56
2021/06/16 03:22:11;;;;;;;3.50;1.67;;;15.80;99.90;;;;;;5007519;28;20474;-56
2021/06/16 03:24:40;;;;;;;3.80;1.97;;;15.80;99.90;;;;;;5017067;28;20492;-57
2021/06/16 03:27:08;;;;;;;7.20;2.20;;;15.90;99.90;;;;;;5011937;28;20464;-57
2021/06/16 03:29:35;;;;;;;4.60;2.93;;;15.80;99.90;;;;;;5001085;28;20475;-56
2021/06/16 03:32:04;;;;;;;3.20;2.03;;;15.90;99.90;;;;;;5001576;28;20491;-57
2021/06/16 03:34:31;;;;;;;3.63;1.80;;;15.90;99.90;;;;;;5002416;28;20453;-57
2021/06/16 03:37:01;;;;;;;4.40;2.20;;;15.90;99.90;;;;;;5012758;28;20481;-58
2021/06/16 03:39:31;;;;;;;4.80;1.77;;;16.00;99.90;;;;;;5007080;28;20473;-56
2021/06/16 03:41:59;;;;;;;5.37;1.70;;;16.00;99.90;;;;;;5007003;28;20451;-56
2021/06/16 03:44:28;;;;;;;3.10;2.17;;;15.90;99.90;;;;;;5002424;28;20447;-57
2021/06/16 03:46:55;;;;;;;1.93;1.77;;;15.90;99.90;;;;;;5007196;28;20427;-57
2021/06/16 03:49:24;;;;;;;7.73;1.93;;;15.90;99.90;;;;;;5010927;28;20451;-57
2021/06/16 03:51:51;;;;;;;1.80;1.67;;;16.00;99.90;;;;;;5007463;28;20438;-56
2021/06/16 03:54:20;;;;;;;4.13;2.37;;;16.00;99.90;;;;;;5016371;28;20445;-57
2021/06/16 03:56:48;;;;;;;2.00;1.80;;;16.00;99.90;;;;;;5008445;28;20508;-57
2021/06/16 03:59:16;;;;;;;7.77;1.80;;;16.00;99.90;;;;;;5007364;28;20510;-56
2021/06/16 04:01:44;;;;;;;5.80;2.30;;;16.10;99.90;;;;;;5013933;28;20474;-57
2021/06/16 04:04:12;;;;;;;3.37;1.80;;;16.10;99.90;;;;;;4997893;28;20452;-53
2021/06/16 04:06:42;;;;;;;2.13;1.70;;;16.10;99.90;;;;;;4997749;28;20479;-56
2021/06/16 04:09:11;;;;;;;3.13;2.03;;;16.20;99.90;;;;;;4998159;28;20439;-56
2021/06/16 04:11:38;;;;;;;5.50;1.97;;;16.20;99.90;;;;;;4997198;28;20451;-55
2021/06/16 04:14:06;;;;;;;5.33;2.43;;;16.30;99.90;;;;;;5000771;28;20442;-52
2021/06/16 04:16:33;;;;;;;4.73;2.40;;;16.40;99.90;;;;;;5005050;28;20479;-55
2021/06/16 04:19:00;;;;;;;4.23;2.40;;;16.30;99.90;;;;;;5001891;28;20447;-53
2021/06/16 04:21:28;;;;;;;2.13;1.80;;;16.40;99.90;;;;;;5002738;28;20443;-51
2021/06/16 04:23:55;;;;;;;4.53;2.27;;;16.50;99.90;;;;;;5000971;28;20443;-51
2021/06/16 04:26:23;;;;;;;6.77;2.30;;;16.50;99.90;;;;;;4996774;28;20475;-52
2021/06/16 04:28:50;;;;;;;5.40;2.50;;;16.60;99.90;;;;;;5002204;28;20454;-57
2021/06/16 04:31:18;;;;;;;4.10;2.03;;;16.60;99.90;;;;;;5002414;28;20471;-50
2021/06/16 04:33:46;;;;;;;3.67;2.70;;;16.60;99.90;;;;;;5001673;28;20446;-56
2021/06/16 04:36:12;;;;;;;6.37;2.27;;;16.70;99.90;;;;;;4997138;28;20504;-56
2021/06/16 04:38:39;;;;;;;7.73;2.70;;;16.70;99.90;;;;;;5011678;28;20449;-50
2021/06/16 04:41:08;;;;;;;4.13;2.10;;;16.60;99.90;;;;;;5000297;28;20475;-55
2021/06/16 04:43:34;;;;;;;5.83;2.27;;;16.70;99.90;;;;;;5001779;28;20451;-53
2021/06/16 04:46:02;;;;;;;7.30;2.23;;;16.70;99.90;;;;;;5014009;28;20444;-54
2021/06/16 04:48:30;;;;;;;3.00;1.77;;;16.80;99.90;;;;;;5007931;28;20468;-58
2021/06/16 04:50:57;;;;;;;7.30;3.00;;;16.80;99.90;;;;;;5010667;28;20449;-57
2021/06/16 04:53:24;;;;;;;5.23;2.57;;;16.90;99.90;;;;;;4997205;28;20457;-57
2021/06/16 04:55:50;;;;;;;2.93;2.10;;;17.00;99.90;;;;;;4998947;28;20461;-57
2021/06/16 04:58:17;;;;;;;7.83;2.23;;;17.00;99.90;;;;;;5005614;28;20419;-57
2021/06/16 05:00:44;;;;;;;4.80;2.00;;;17.00;99.90;;;;;;4986610;28;20478;-56
2021/06/16 05:03:11;;;;;;;4.03;2.10;;;17.10;99.90;;;;;;4985668;28;20475;-57
2021/06/16 05:05:39;;;;;;;8.30;4.50;;;17.10;99.90;;;;;;4988712;28;20479;-57
2021/06/16 05:08:06;;;;;;;3.00;2.33;;;17.20;99.90;;;;;;4982316;28;20447;-57
2021/06/16 05:10:33;;;;;;;3.33;2.30;;;17.20;99.90;;;;;;4986696;28;20474;-57
2021/06/16 05:13:00;;;;;;;4.20;2.10;;;17.20;99.90;;;;;;4996727;28;20438;-57
2021/06/16 05:15:26;;;;;;;4.93;2.50;;;17.30;99.90;;;;;;4990054;28;20478;-57
2021/06/16 05:17:55;;;;;;;3.07;2.03;;;17.30;99.90;;;;;;4993212;28;20491;-56
2021/06/16 05:20:24;;;;;;;3.53;2.40;;;17.40;99.90;;;;;;4984922;28;20443;-56
2021/06/16 05:22:53;;;;;;;6.63;2.23;;;17.50;99.90;;;;;;4984931;28;20443;-56
2021/06/16 05:25:20;;;;;;;3.30;2.20;;;17.50;99.90;;;;;;4986777;28;20466;-57
2021/06/16 05:27:47;;;;;;;4.20;2.20;;;17.50;99.90;;;;;;4986971;28;20443;-57
2021/06/16 05:30:14;;;;;;;7.33;2.20;;;17.50;99.90;;;;;;4993441;28;20454;-57
2021/06/16 05:32:43;;;;;;;7.93;2.33;;;17.60;99.90;;;;;;4988686;28;20447;-56
2021/06/16 05:35:10;;;;;;;2.87;1.77;;;17.60;99.90;;;;;;4995926;28;20451;-54
2021/06/16 05:37:37;;;;;;;2.67;1.80;;;17.60;99.90;;;;;;4981177;28;20541;-56
2021/06/16 05:40:07;;;;;;;4.63;2.37;;;17.70;99.90;;;;;;4965527;28;20459;-56
2021/06/16 05:42:34;;;;;;;3.00;2.20;;;17.70;99.90;;;;;;4970130;28;20907;-57
2021/06/16 05:45:01;;;;;;;6.00;2.07;;;17.80;99.90;;;;;;4975227;28;20474;-58
2021/06/16 05:47:27;;;;;;;5.10;2.37;;;17.80;99.80;;;;;;4969480;28;20455;-55
2021/06/16 05:49:54;;;;;;;3.50;2.00;;;17.90;99.70;;;;;;4975135;28;20458;-55
2021/06/16 05:52:21;;;;;;;8.43;2.27;;;18.00;99.90;;;;;;4970809;28;20446;-56
2021/06/16 05:54:47;;;;;;;4.40;3.03;;;18.00;99.60;;;;;;4972766;28;20474;-53
2021/06/16 05:57:16;;;;;;;8.60;2.33;;;18.10;99.20;;;;;;4960946;28;20495;-53
2021/06/16 05:59:42;;;;;;;4.00;2.50;;;18.10;99.20;;;;;;4973897;28;20502;-56
2021/06/16 06:02:09;;;;;;;3.67;2.20;;;18.20;99.20;;;;;;4987777;28;20489;-53
2021/06/16 06:04:38;;;;;;;7.20;2.60;;;18.30;98.80;;;;;;4991357;28;20920;-51
2021/06/16 06:07:06;;;;;;;3.20;2.07;;;18.40;98.40;;;;;;4971148;28;20433;-54
2021/06/16 06:09:36;;;;;;;6.40;2.47;;;18.50;97.80;;;;;;4988423;28;20516;-53
2021/06/16 06:12:03;;;;;;;8.00;1.97;;;18.60;97.60;;;;;;4984023;28;20459;-50
2021/06/16 06:14:31;;;;;;;2.87;1.80;;;18.70;96.90;;;;;;4989650;28;20481;-47
2021/06/16 06:16:58;;;;;;;4.20;2.10;;;18.80;96.70;;;;;;4989081;28;20521;-55
2021/06/16 06:19:24;;;;;;;4.50;2.10;;;18.80;96.50;;;;;;4982293;28;20451;-53
2021/06/16 06:21:51;;;;;;;5.53;1.97;;;18.90;96.20;;;;;;4981308;28;20458;-48
2021/06/16 06:24:18;;;;;;;4.30;1.77;;;19.00;96.50;;;;;;4983998;28;20481;-48
2021/06/16 06:26:45;;;;;;;3.47;2.10;;;19.10;97.10;;;;;;4993508;28;20954;-53
2021/06/16 06:29:11;;;;;;;4.30;1.90;;;19.20;95.80;;;;;;4989214;28;20489;-54
2021/06/16 06:31:40;;;;;;;2.83;1.60;;;19.20;95.50;;;;;;4983664;28;20468;-54
2021/06/16 06:34:07;;;;;;;3.57;1.97;;;19.40;95.10;;;;;;4986342;28;20763;-52
2021/06/16 06:36:34;;;;;;;4.30;2.03;;;19.50;95.00;;;;;;4987823;28;20446;-53
2021/06/16 06:39:01;;;;;;;5.20;2.80;;;19.60;95.80;;;;;;4991627;28;20510;-53
2021/06/16 06:41:28;;;;;;;10.80;2.77;;;19.60;96.00;;;;;;4992350;28;20470;-52
2021/06/16 06:43:54;;;;;;;6.10;2.33;;;19.70;97.10;;;;;;4986163;28;20450;-55
2021/06/16 06:46:21;;;;;;;5.40;1.80;;;19.80;96.40;;;;;;4989556;28;20458;-56
2021/06/16 06:48:49;;;;;;;5.07;2.47;;;19.80;96.60;;;;;;4988668;28;20995;-55
2021/06/16 06:51:16;;;;;;;5.67;2.53;;;19.90;96.60;;;;;;4983850;28;21036;-56
2021/06/16 06:53:43;;;;;;;9.07;2.43;;;20.00;96.60;;;;;;4980834;28;20454;-57
2021/06/16 06:56:09;;;;;;;7.27;3.50;;;20.10;96.40;;;;;;4993490;28;20465;-56
2021/06/16 06:58:37;;;;;;;5.03;2.10;;;20.30;95.60;;;;;;4986996;28;20988;-56
2021/06/16 07:01:04;;;;;;;6.80;2.73;;;20.30;95.70;;;;;;4984466;28;20477;-55
2021/06/16 07:03:32;;;;;;;4.17;2.50;;;20.50;95.60;;;;;;4983412;28;20455;-54
2021/06/16 07:06:01;;;;;;;7.30;2.70;;;20.60;95.40;;;;;;4985547;28;20556;-54
2021/06/16 07:08:27;;;;;;;5.63;2.30;;;20.70;95.60;;;;;;4985514;28;20458;-56
2021/06/16 07:10:54;;;;;;;7.10;2.07;;;20.90;95.30;;;;;;4986225;28;20454;-53
2021/06/16 07:13:21;;;;;;;3.47;2.00;;;21.10;94.10;;;;;;4980971;28;20535;-56
2021/06/16 07:15:49;;;;;;;2.47;1.77;;;21.30;94.30;;;;;;4984979;28;20961;-57
2021/06/16 07:18:16;;;;;;;6.30;2.60;;;21.70;94.50;;;;;;4978565;28;20569;-56
2021/06/16 07:20:43;;;;;;;3.70;2.20;;;23.10;92.90;;;;;;4990819;28;20928;-57
2021/06/16 07:23:11;;;;;;;3.70;2.10;;;25.10;90.00;;;;;;4985347;28;20465;-56
2021/06/16 07:25:38;;;;;;;2.30;1.97;;;27.40;80.60;;;;;;4979196;28;20471;-57
2021/06/16 07:28:05;;;;;;;5.00;2.03;;;29.40;66.90;;;;;;4992184;28;20454;-50
2021/06/16 07:30:32;;;;;;;6.30;2.53;;;31.00;59.60;;;;;;4985537;28;20445;-51
2021/06/16 07:32:59;;;;;;;3.63;2.70;;;32.60;55.20;;;;;;4989747;28;20458;-49
2021/06/16 07:35:26;;;;;;;6.10;2.50;;;34.10;50.40;;;;;;4984906;28;20454;-49
2021/06/16 07:37:53;;;;;;;3.13;2.07;;;35.30;45.80;;;;;;4985354;28;20485;-52
2021/06/16 07:40:22;;;;;;;3.07;2.20;;;35.90;43.80;;;;;;4987591;28;20496;-46
2021/06/16 07:42:48;;;;;;;4.20;2.70;;;36.50;41.80;;;;;;4987699;28;20524;-45
2021/06/16 07:45:15;;;;;;;3.07;2.00;;;37.10;40.20;;;;;;4986233;28;20980;-49
2021/06/16 07:47:42;;;;;;;3.77;2.00;;;37.40;38.40;;;;;;4991127;28;20439;-46
2021/06/16 07:50:10;;;;;;;2.20;1.80;;;37.50;38.10;;;;;;4982320;28;20504;-50
2021/06/16 07:52:37;;;;;;;5.20;2.73;;;37.50;37.50;;;;;;4979835;28;20902;-48
2021/06/16 07:55:04;;;;;;;2.70;2.23;;;37.60;37.30;;;;;;4983046;28;20446;-46
2021/06/16 07:57:33;;;;;;;3.80;2.90;;;37.70;37.00;;;;;;4991397;28;20490;-50
2021/06/16 08:00:00;;;;;;;5.50;2.20;;;38.00;36.90;;;;;;4975675;28;20495;-50
2021/06/16 08:02:29;;;;;;;4.13;1.97;;;38.20;36.30;;;;;;4965479;28;20460;-54
2021/06/16 08:04:56;;;;;;;4.57;2.70;;;38.40;35.80;;;;;;4963512;28;20510;-52
2021/06/16 08:07:23;;;;;;;3.07;2.30;;;38.40;35.90;;;;;;4962153;28;20535;-53
2021/06/16 08:09:49;;;;;;;4.27;2.43;;;38.50;35.50;;;;;;4960292;28;20491;-50
2021/06/16 08:12:16;;;;;;;5.40;2.50;;;38.50;35.40;;;;;;4967542;28;20452;-52
2021/06/16 08:14:45;;;;;;;4.07;3.43;;;38.30;35.40;;;;;;4969955;28;20482;-50
2021/06/16 08:17:12;;;;;;;3.73;2.30;;;38.20;35.70;;;;;;4960430;28;20519;-53
2021/06/16 08:19:39;;;;;;;3.97;2.30;;;38.10;35.50;;;;;;4958518;28;20443;-48
2021/06/16 08:22:09;;;;;;;3.37;2.93;;;38.10;35.80;;;;;;4961034;28;20447;-50
2021/06/16 08:24:36;;;;;;;3.63;2.93;;;38.10;35.70;;;;;;4962267;28;20470;-51
2021/06/16 08:27:03;;;;;;;2.83;2.30;;;37.90;36.30;;;;;;4960107;28;20455;-52
2021/06/16 08:29:30;;;;;;;2.77;2.10;;;37.90;36.30;;;;;;4967072;28;20447;-48
2021/06/16 08:31:58;;;;;;;4.07;2.30;;;37.90;36.10;;;;;;4967102;28;20444;-47
2021/06/16 08:34:25;;;;;;;3.27;2.50;;;37.80;36.40;;;;;;4970495;28;20517;-50
2021/06/16 08:36:52;;;;;;;5.30;3.07;;;37.60;36.50;;;;;;4965102;28;20532;-45
2021/06/16 08:39:19;;;;;;;2.83;2.40;;;37.70;36.00;;;;;;4962787;28;20487;-46
2021/06/16 08:41:46;;;;;;;5.00;2.73;;;37.60;36.20;;;;;;4972792;28;20611;-50
2021/06/16 08:44:14;;;;;;;3.83;2.43;;;37.70;36.10;;;;;;4965188;28;20767;-48
2021/06/16 08:46:41;;;;;;;4.03;2.50;;;37.80;35.70;;;;;;4960956;28;20461;-51
2021/06/16 08:49:10;;;;;;;5.53;2.43;;;37.80;35.50;;;;;;4967839;28;20932;-48
2021/06/16 08:51:38;;;;;;;3.87;3.07;;;38.00;35.50;;;;;;4974653;28;20462;-51
2021/06/16 08:54:06;;;;;;;5.90;2.40;;;38.30;35.40;;;;;;4970718;28;20447;-48
2021/06/16 08:56:33;;;;;;;3.97;3.30;;;38.50;34.80;;;;;;4966896;28;20938;-51
2021/06/16 08:59:00;;;;;;;2.70;2.50;;;38.60;35.10;;;;;;4969527;28;20565;-50
2021/06/16 09:01:26;;;;;;;7.20;2.67;;;38.70;34.70;;;;;;4980809;28;20446;-48
2021/06/16 09:03:53;;;;;;;5.90;2.70;;;39.00;34.20;;;;;;4980653;28;20446;-53
2021/06/16 09:06:27;;;;;;;2.60;2.20;;;39.10;34.10;;;;;;4980090;28;20852;-49
2021/06/16 09:08:57;;;;;;;4.33;3.00;;;39.00;34.40;;;;;;4976459;28;20454;-47
2021/06/16 09:11:26;;;;;;;4.53;2.70;;;38.80;34.40;;;;;;4980236;28;20447;-50
2021/06/16 09:14:11;;;;;;;3.97;2.30;;;38.80;34.10;;;;;;4979712;28;20450;-48
2021/06/16 09:16:37;;;;;;;5.07;2.47;;;38.80;34.10;;;;;;4980286;28;20815;-48
2021/06/16 09:19:16;;;;;;;5.70;2.60;;;38.70;34.30;;;;;;4978687;28;20518;-45
2021/06/16 09:21:44;;;;;;;3.87;1.93;;;38.60;34.30;;;;;;4980131;28;20450;-48
2021/06/16 09:24:11;;;;;;;3.90;2.40;;;39.00;33.20;;;;;;4980240;28;21020;-48
2021/06/16 09:26:40;;;;;;;3.73;2.50;;;38.90;33.70;;;;;;4980590;28;20462;-49
2021/06/16 09:29:07;;;;;;;5.00;2.60;;;38.80;33.30;;;;;;4980635;28;20465;-50
2021/06/16 09:31:39;;;;;;;2.33;2.13;;;38.60;33.70;;;;;;4980771;28;20523;-50
2021/06/16 09:34:09;;;;;;;5.00;2.07;;;38.70;34.20;;;;;;4980388;28;20458;-52
2021/06/16 09:36:50;;;;;;;6.73;2.37;;;38.80;33.60;;;;;;4980145;28;20466;-48
2021/06/16 09:39:20;;;;;;;3.63;2.30;;;38.70;33.90;;;;;;4978843;28;20533;-47
2021/06/16 09:41:56;;;;;;;5.17;2.10;;;38.70;33.80;;;;;;4980251;28;20859;-49
2021/06/16 09:44:43;;;;;;;3.47;2.57;;;38.70;33.40;;;;;;4979953;28;20658;-48
2021/06/16 09:47:27;;;;;;;3.37;2.13;;;38.60;32.60;;;;;;4980333;28;20504;-49
2021/06/16 09:49:56;;;;;;;5.37;2.03;;;38.20;32.90;;;;;;4977738;28;20439;-49
2021/06/16 09:52:35;;;;;;;4.27;2.47;;;38.30;32.90;;;;;;4979303;28;20447;-46
2021/06/16 09:55:05;;;;;;;5.53;2.67;;;38.00;33.80;;;;;;4979501;28;20812;-49
2021/06/16 09:57:32;;;;;;;3.40;2.10;;;38.00;33.70;;;;;;4980244;28;20525;-46
2021/06/16 10:00:02;;;;;;;3.10;2.63;;;38.10;32.90;;;;;;4976275;28;20481;-48
2021/06/16 10:02:30;;;;;;;7.03;5.60;;;38.00;32.80;;;;;;4977087;28;20474;-49
2021/06/16 10:04:59;;;;;;;3.70;2.40;;;38.10;32.70;;;;;;4977683;28;20446;-47
2021/06/16 10:07:26;;;;;;;4.17;2.80;;;38.20;33.00;;;;;;4977000;28;20447;-48
2021/06/16 10:09:58;;;;;;;3.67;2.50;;;37.70;31.30;;;;;;4976544;28;20514;-50
2021/06/16 10:12:27;;;;;;;9.70;4.27;;;37.50;31.60;;;;;;4976325;28;20447;-51
2021/06/16 10:14:55;;;;;;;5.57;3.27;;;37.30;33.40;;;;;;4976267;28;20458;-51
2021/06/16 10:17:22;;;;;;;3.57;2.30;;;37.20;33.50;;;;;;4976302;28;20459;-51
2021/06/16 10:19:50;;;;;;;4.03;3.60;;;36.90;31.90;;;;;;4975270;28;20490;-49
2021/06/16 10:22:18;;;;;;;4.07;3.00;;;36.60;31.90;;;;;;4976192;28;20531;-46
2021/06/16 10:24:45;;;;;;;14.43;6.40;;;36.40;33.50;;;;;;4974479;28;20797;-48
2021/06/16 10:27:17;;;;;;;4.87;3.73;;;36.30;34.20;;;;;;4967713;28;20448;-50
2021/06/16 10:29:47;;;;;;;3.90;2.30;;;36.40;33.20;;;;;;4973363;28;20948;-48
2021/06/16 10:32:14;;;;;;;4.03;2.20;;;36.50;33.60;;;;;;4975843;28;20459;-51
2021/06/16 10:35:01;;;;;;;3.20;2.90;;;36.10;34.30;;;;;;4975798;28;20451;-49
2021/06/16 10:37:31;;;;;;;4.47;2.60;;;35.60;35.40;;;;;;4975806;28;20510;-49
2021/06/16 10:40:33;;;;;;;4.63;3.17;;;35.30;34.00;;;;;;4974923;28;21008;-46
2021/06/16 10:43:24;;;;;;;8.40;4.97;;;34.80;34.90;;;;;;4974245;28;20457;-48
2021/06/16 10:45:54;;;;;;;6.10;4.57;;;34.50;36.00;;;;;;4973555;28;20455;-51
2021/06/16 10:48:21;;;;;;;8.60;6.50;;;34.30;36.20;;;;;;4974945;28;20510;-50
2021/06/16 10:51:02;;;;;;;4.53;2.83;;;34.00;36.20;;;;;;4975233;28;20789;-52
2021/06/16 10:53:29;;;;;;;6.30;2.53;;;33.70;36.80;;;;;;4975031;28;20881;-49
2021/06/16 10:56:08;;;;;;;2.70;2.23;;;33.10;37.20;;;;;;4975323;28;20447;-48
2021/06/16 10:58:46;;;;;;;5.67;2.40;;;32.70;37.60;;;;;;4973764;28;20532;-46
2021/06/16 11:01:15;;;;;;;5.17;2.90;;;32.30;39.20;;;;;;4957492;28;20450;-45
2021/06/16 11:04:03;;;;;;;5.63;3.23;;;32.10;38.60;;;;;;4961084;28;20452;-47
2021/06/16 11:06:37;;;;;;;4.57;2.63;;;31.90;40.30;;;;;;4971370;28;20573;-45
2021/06/16 11:09:05;;;;;;;5.13;2.30;;;31.90;39.30;;;;;;4953190;28;20795;-48
2021/06/16 11:12:06;;;;;;;3.80;2.30;;;31.70;39.40;;;;;;4965405;28;20452;-50
2021/06/16 11:14:50;;;;;;;4.33;2.77;;;31.60;40.40;;;;;;4959202;28;20534;-44
2021/06/16 11:17:42;;;;;;;5.63;3.00;;;31.40;41.10;;;;;;4969151;28;20481;-46
2021/06/16 11:20:11;;;;;;;7.47;2.20;;;31.30;40.40;;;;;;4959770;28;20543;-53
2021/06/16 11:22:49;;;;;;;3.77;2.53;;;31.30;40.70;;;;;;4970167;28;20534;-45
2021/06/16 11:25:32;;;;;;;4.70;2.10;;;31.30;40.70;;;;;;4965320;28;20530;-48
2021/06/16 11:28:20;;;;;;;4.90;2.63;;;31.20;40.70;;;;;;4967877;28;20521;-45
2021/06/16 11:31:05;;;;;;;4.33;2.57;;;31.00;40.90;;;;;;4967819;28;20486;-45
2021/06/16 11:33:37;;;;;;;5.23;3.67;;;31.10;42.50;;;;;;4962489;28;20997;-47
2021/06/16 11:36:09;;;;;;;6.50;2.80;;;31.20;42.10;;;;;;4973232;28;20550;-47
2021/06/16 11:38:37;;;;;;;4.03;2.57;;;31.10;41.70;;;;;;4960160;28;20542;-49
2021/06/16 11:41:08;;;;;;;4.43;2.90;;;31.10;41.60;;;;;;4967049;28;20455;-47
2021/06/16 11:43:39;;;;;;;4.23;2.37;;;31.10;41.30;;;;;;4964949;28;20455;-47
2021/06/16 11:46:14;;;;;;;4.23;2.50;;;30.90;41.60;;;;;;4963747;28;20487;-50
2021/06/16 11:48:42;;;;;;;4.30;2.30;;;30.80;41.30;;;;;;4960191;28;20537;-47
2021/06/16 11:51:10;;;;;;;5.20;2.70;;;30.70;41.50;;;;;;4968667;28;20458;-51
2021/06/16 11:53:39;;;;;;;3.50;2.87;;;30.70;42.10;;;;;;4963698;28;20460;-50
2021/06/16 11:56:07;;;;;;;2.40;2.10;;;30.70;42.40;;;;;;4962862;28;20478;-49
2021/06/16 11:58:36;;;;;;;4.23;2.80;;;30.60;42.40;;;;;;4962870;28;20483;-51
2021/06/16 12:01:06;;;;;;;4.60;2.73;;;30.50;42.70;;;;;;4979322;28;20466;-45
2021/06/16 12:03:34;;;;;;;3.03;2.73;;;30.50;43.00;;;;;;4982215;28;20455;-45
2021/06/16 12:06:02;;;;;;;4.10;2.70;;;30.40;43.10;;;;;;4993397;28;20508;-48
2021/06/16 12:08:29;;;;;;;4.93;2.73;;;30.40;43.90;;;;;;4986816;28;20979;-46
2021/06/16 12:10:57;;;;;;;5.40;2.97;;;30.40;43.30;;;;;;4984457;28;20467;-50
2021/06/16 12:13:24;;;;;;;7.77;3.80;;;30.40;43.70;;;;;;4988171;28;20453;-47
2021/06/16 12:15:51;;;;;;;6.03;3.20;;;30.40;43.90;;;;;;4975997;28;20451;-48
2021/06/16 12:18:19;;;;;;;5.37;3.00;;;30.50;43.60;;;;;;4985906;28;20477;-45
2021/06/16 12:20:49;;;;;;;4.40;2.30;;;30.30;43.40;;;;;;4984426;28;20462;-44
2021/06/16 12:23:25;;;;;;;4.20;2.83;;;30.30;44.00;;;;;;4979420;28;20457;-46
2021/06/16 12:26:02;;;;;;;4.70;2.47;;;30.20;43.20;;;;;;4976905;28;20489;-45
2021/06/16 12:28:28;;;;;;;4.60;2.43;;;30.00;44.00;;;;;;4980910;28;20474;-44
2021/06/16 12:30:57;;;;;;;3.33;2.57;;;30.00;44.00;;;;;;4983397;28;20454;-44
2021/06/16 12:33:36;;;;;;;6.37;5.50;;;30.00;44.40;;;;;;4975253;28;20953;-50
2021/06/16 12:36:07;;;;;;;6.83;4.27;;;30.00;44.50;;;;;;4992489;28;20462;-45
2021/06/16 12:38:42;;;;;;;4.80;2.67;;;30.10;44.70;;;;;;4982127;28;20865;-44
2021/06/16 12:41:27;;;;;;;5.87;3.17;;;30.00;44.40;;;;;;4977818;28;20454;-48
2021/06/16 12:43:54;;;;;;;5.43;2.93;;;30.10;44.20;;;;;;4983056;28;20462;-45
2021/06/16 12:46:21;;;;;;;4.30;2.57;;;30.10;43.90;;;;;;4980987;28;20566;-48
2021/06/16 12:48:48;;;;;;;3.27;2.90;;;29.90;44.70;;;;;;4981431;28;20508;-47
2021/06/16 12:51:16;;;;;;;5.40;3.60;;;29.90;45.30;;;;;;4989026;28;20466;-51
2021/06/16 12:53:44;;;;;;;9.13;3.97;;;29.80;45.30;;;;;;4979324;28;20435;-51
2021/06/16 12:56:12;;;;;;;4.23;3.30;;;29.90;45.60;;;;;;4984035;28;20573;-49
2021/06/16 12:58:46;;;;;;;4.60;3.30;;;30.00;44.60;;;;;;4984155;28;20450;-47
2021/06/16 13:01:17;;;;;;;4.63;2.97;;;30.00;44.90;;;;;;4989060;28;20477;-45
2021/06/16 13:03:48;;;;;;;3.33;2.47;;;30.00;44.60;;;;;;4984841;28;20771;-44
2021/06/16 13:06:18;;;;;;;13.30;3.77;;;29.80;45.00;;;;;;4986396;28;20473;-49
2021/06/16 13:08:48;;;;;;;5.23;3.23;;;29.90;45.50;;;;;;4982338;28;20458;-45